Time;durP1;ratioP1;P1;durP2;ratioP2;P2;SDS_P1;SDS_P2;PMS_P1;PMS_P2;Temp;Humidity;BMP_temperature;BMP_pressure;BME280_temperature;BME280_humidity;BME280_pressure;Samples;Min_cycle;Max_cycle;Signal;HPM_P1;HPM_P2
2022/05/12 00:00:25;;;;;;;8.38;1.23;;;;;;;;;;5006302;28;20554;-59
2022/05/12 00:02:51;;;;;;;7.82;1.35;;;;;;;;;;5017820;28;20041;-59
2022/05/12 00:05:17;;;;;;;7.80;1.35;;;;;;;;;;5040131;28;20036;-59
2022/05/12 00:07:44;;;;;;;9.07;1.25;;;;;;;;;;5023111;28;20084;-59
2022/05/12 00:10:11;;;;;;;13.38;1.88;;;;;;;;;;5024237;28;20062;-59
2022/05/12 00:12:38;;;;;;;6.65;1.20;;;;;;;;;;5023115;28;20073;-59
2022/05/12 00:15:08;;;;;;;5.68;1.08;;;;;;;;;;5021790;28;20989;-59
2022/05/12 00:17:33;;;;;;;9.55;0.93;;;;;;;;;;5019833;28;20021;-59
2022/05/12 00:20:00;;;;;;;11.50;1.52;;;;;;;;;;5015239;28;20462;-59
2022/05/12 00:22:26;;;;;;;16.35;1.90;;;;;;;;;;5025729;28;20478;-59
2022/05/12 00:24:52;;;;;;;7.15;1.50;;;;;;;;;;5020090;28;20592;-59
2022/05/12 00:27:17;;;;;;;8.68;1.42;;;;;;;;;;5019830;28;20713;-59
2022/05/12 00:29:42;;;;;;;17.08;1.65;;;;;;;;;;5019672;28;20080;-59
2022/05/12 00:32:08;;;;;;;6.88;1.13;;;;;;;;;;5022534;28;20040;-59
2022/05/12 00:34:33;;;;;;;5.65;1.23;;;;;;;;;;5020695;28;20021;-59
2022/05/12 00:36:59;;;;;;;12.18;1.60;;;;;;;;;;5022633;28;20365;-60
2022/05/12 00:39:24;;;;;;;6.15;1.38;;;;;;;;;;5023472;28;20091;-59
2022/05/12 00:41:50;;;;;;;10.32;1.52;;;;;;;;;;5020898;28;20108;-59
2022/05/12 00:44:16;;;;;;;9.35;1.30;;;;;;;;;;5021553;28;20501;-59
2022/05/12 00:46:42;;;;;;;11.95;1.85;;;;;;;;;;5021389;28;20022;-59
2022/05/12 00:49:24;;;;;;;8.68;1.10;;;;;;;;;;5021876;28;20341;-59
2022/05/12 00:52:02;;;;;;;8.73;1.23;;;;;;;;;;5021989;28;20124;-59
2022/05/12 00:54:37;;;;;;;11.25;1.65;;;;;;;;;;5020636;28;20123;-59
2022/05/12 00:57:07;;;;;;;17.90;1.33;;;;;;;;;;5023876;28;20068;-59
2022/05/12 00:59:33;;;;;;;12.13;1.33;;;;;;;;;;5019516;28;20444;-59
2022/05/12 01:02:02;;;;;;;14.15;2.10;;;;;;;;;;5022067;28;20091;-59
2022/05/12 01:04:31;;;;;;;11.95;1.38;;;;;;;;;;5020678;28;20065;-58
2022/05/12 01:06:56;;;;;;;12.88;1.40;;;;;;;;;;5024157;28;20030;-58
2022/05/12 01:09:22;;;;;;;14.60;2.05;;;;;;;;;;5025765;28;20067;-59
2022/05/12 01:11:49;;;;;;;15.48;1.17;;;;;;;;;;5015944;28;20481;-59
2022/05/12 01:14:15;;;;;;;14.05;1.50;;;;;;;;;;5021616;28;20041;-59
2022/05/12 01:16:47;;;;;;;7.28;1.35;;;;;;;;;;5022423;28;20026;-59
2022/05/12 01:19:20;;;;;;;;;;;;;;;;;;5020520;28;20268;-59
2022/05/12 01:21:47;;;;;;;5.70;1.02;;;;;;;;;;5020184;28;19976;-59
2022/05/12 01:24:14;;;;;;;9.27;1.33;;;;;;;;;;5021746;28;20563;-59
2022/05/12 01:26:40;;;;;;;12.60;1.98;;;;;;;;;;5025706;28;20407;-60
2022/05/12 01:29:06;;;;;;;9.45;1.23;;;;;;;;;;5017793;28;20025;-59
2022/05/12 01:31:32;;;;;;;15.88;1.63;;;;;;;;;;5021844;28;20033;-59
2022/05/12 01:33:58;;;;;;;9.55;1.55;;;;;;;;;;5020023;28;20056;-59
2022/05/12 01:36:23;;;;;;;13.93;1.20;;;;;;;;;;5019341;28;20393;-59
2022/05/12 01:38:49;;;;;;;7.50;1.15;;;;;;;;;;5020781;28;20056;-59
2022/05/12 01:41:16;;;;;;;11.85;1.70;;;;;;;;;;5020788;28;20042;-59
2022/05/12 01:43:41;;;;;;;10.23;1.23;;;;;;;;;;5019162;28;20052;-59
2022/05/12 01:46:07;;;;;;;9.63;1.10;;;;;;;;;;5016687;28;20033;-59
2022/05/12 01:48:33;;;;;;;13.05;1.10;;;;;;;;;;5015785;28;20096;-59
2022/05/12 01:50:59;;;;;;;7.00;1.55;;;;;;;;;;5018668;28;20034;-59
2022/05/12 01:53:25;;;;;;;9.02;1.33;;;;;;;;;;5017546;28;20168;-59
2022/05/12 01:55:50;;;;;;;15.23;1.92;;;;;;;;;;5016977;28;20537;-59
2022/05/12 01:58:19;;;;;;;11.13;1.67;;;;;;;;;;5019509;28;20036;-59
2022/05/12 02:00:44;;;;;;;9.65;1.10;;;;;;;;;;5020765;28;20021;-59
2022/05/12 02:03:10;;;;;;;14.45;1.67;;;;;;;;;;5026364;28;20029;-59
2022/05/12 02:05:37;;;;;;;18.83;1.92;;;;;;;;;;5019880;28;20384;-59
2022/05/12 02:08:05;;;;;;;7.68;0.98;;;;;;;;;;5023604;28;20369;-60
2022/05/12 02:10:38;;;;;;;16.15;1.35;;;;;;;;;;5016509;28;20045;-59
2022/05/12 02:13:12;;;;;;;13.23;2.00;;;;;;;;;;5021893;28;20053;-59
2022/05/12 02:15:39;;;;;;;6.00;1.00;;;;;;;;;;5017393;28;20049;-59
2022/05/12 02:18:06;;;;;;;16.58;1.38;;;;;;;;;;5020229;28;20025;-61
2022/05/12 02:20:31;;;;;;;12.20;1.65;;;;;;;;;;5017333;28;20103;-59
2022/05/12 02:22:57;;;;;;;3.78;0.93;;;;;;;;;;5015560;28;20480;-59
2022/05/12 02:25:22;;;;;;;8.85;1.33;;;;;;;;;;5018511;28;20392;-59
2022/05/12 02:27:50;;;;;;;9.93;1.30;;;;;;;;;;5017618;28;20029;-59
2022/05/12 02:30:22;;;;;;;13.48;2.47;;;;;;;;;;5021126;28;20032;-59
2022/05/12 02:32:47;;;;;;;;;;;;;;;;;;5019412;28;20484;-59
2022/05/12 02:35:13;;;;;;;12.43;1.40;;;;;;;;;;5019169;28;19916;-59
2022/05/12 02:37:40;;;;;;;8.68;1.10;;;;;;;;;;5021610;28;20366;-59
2022/05/12 02:40:07;;;;;;;12.82;1.60;;;;;;;;;;5019469;28;20034;-59
2022/05/12 02:42:33;;;;;;;10.75;1.45;;;;;;;;;;5015656;28;20021;-59
2022/05/12 02:44:58;;;;;;;8.07;1.48;;;;;;;;;;5025095;28;20044;-59
2022/05/12 02:47:24;;;;;;;12.20;1.48;;;;;;;;;;5017104;28;20140;-59
2022/05/12 02:49:49;;;;;;;9.65;1.38;;;;;;;;;;5023238;28;20280;-59
2022/05/12 02:52:15;;;;;;;7.32;1.65;;;;;;;;;;5023501;28;20029;-57
2022/05/12 02:54:41;;;;;;;13.25;1.83;;;;;;;;;;5019468;28;20571;-59
2022/05/12 02:57:06;;;;;;;11.88;1.33;;;;;;;;;;5021004;28;20029;-59
2022/05/12 02:59:32;;;;;;;23.80;1.42;;;;;;;;;;5015507;28;20123;-59
2022/05/12 03:01:58;;;;;;;10.13;1.05;;;;;;;;;;5015177;28;20260;-59
2022/05/12 03:04:24;;;;;;;9.80;1.30;;;;;;;;;;5015102;28;20041;-59
2022/05/12 03:06:50;;;;;;;17.48;1.65;;;;;;;;;;5022503;28;20029;-59
2022/05/12 03:09:16;;;;;;;14.07;1.23;;;;;;;;;;5021204;28;20033;-59
2022/05/12 03:11:42;;;;;;;7.53;1.48;;;;;;;;;;5020160;28;20084;-59
2022/05/12 03:14:08;;;;;;;11.45;1.20;;;;;;;;;;5024721;28;20032;-59
2022/05/12 03:16:33;;;;;;;10.10;1.27;;;;;;;;;;5019468;28;20080;-59
2022/05/12 03:18:59;;;;;;;6.80;1.10;;;;;;;;;;5025995;28;20029;-59
2022/05/12 03:21:26;;;;;;;8.27;1.30;;;;;;;;;;5022504;28;20536;-59
2022/05/12 03:23:52;;;;;;;13.73;1.50;;;;;;;;;;5017537;28;20038;-60
2022/05/12 03:26:18;;;;;;;14.40;1.45;;;;;;;;;;5023000;28;20021;-59
2022/05/12 03:28:45;;;;;;;11.98;1.45;;;;;;;;;;5025441;28;20034;-59
2022/05/12 03:31:10;;;;;;;6.15;1.38;;;;;;;;;;5020047;28;20069;-59
2022/05/12 03:33:37;;;;;;;10.55;1.95;;;;;;;;;;5021068;28;20105;-58
2022/05/12 03:36:04;;;;;;;8.82;1.30;;;;;;;;;;5022325;28;20115;-59
2022/05/12 03:38:30;;;;;;;11.90;1.30;;;;;;;;;;5020593;28;20247;-59
2022/05/12 03:40:55;;;;;;;10.70;1.80;;;;;;;;;;5026486;28;20104;-59
2022/05/12 03:46:07;;;;;;;11.20;1.55;;;;;;;;;;5021413;28;20048;-59
2022/05/12 03:48:36;;;;;;;14.23;1.58;;;;;;;;;;5021239;28;20546;-58
2022/05/12 03:51:03;;;;;;;12.63;2.13;;;;;;;;;;5023563;28;20107;-58
2022/05/12 03:53:30;;;;;;;10.35;1.30;;;;;;;;;;5021021;28;20025;-58
2022/05/12 03:55:56;;;;;;;7.15;1.92;;;;;;;;;;5024238;28;20044;-59
2022/05/12 03:58:21;;;;;;;13.13;2.22;;;;;;;;;;5026774;28;20037;-60
2022/05/12 04:00:48;;;;;;;9.38;0.95;;;;;;;;;;5023366;28;20133;-60
2022/05/12 04:03:14;;;;;;;17.77;1.60;;;;;;;;;;5020965;28;20111;-59
2022/05/12 04:05:39;;;;;;;7.05;1.33;;;;;;;;;;5020304;28;20147;-61
2022/05/12 04:08:05;;;;;;;17.77;1.80;;;;;;;;;;5025977;28;20042;-60
2022/05/12 04:10:32;;;;;;;8.60;1.42;;;;;;;;;;5016966;28;20255;-60
2022/05/12 04:12:58;;;;;;;8.13;1.90;;;;;;;;;;5023512;28;20124;-59
2022/05/12 04:15:23;;;;;;;11.45;2.03;;;;;;;;;;5025405;28;20179;-60
2022/05/12 04:17:58;;;;;;;12.23;1.38;;;;;;;;;;5018790;28;20772;-59
2022/05/12 04:20:25;;;;;;;28.10;2.53;;;;;;;;;;5019970;28;20439;-60
2022/05/12 04:22:51;;;;;;;12.65;1.65;;;;;;;;;;5018378;28;20021;-60
2022/05/12 04:25:16;;;;;;;14.27;2.08;;;;;;;;;;5023775;28;20033;-60
2022/05/12 04:27:42;;;;;;;12.55;1.77;;;;;;;;;;5019648;28;20031;-60
2022/05/12 04:30:14;;;;;;;9.40;1.40;;;;;;;;;;5022011;28;20063;-59
2022/05/12 04:32:40;;;;;;;11.70;1.63;;;;;;;;;;5026358;28;20565;-59
2022/05/12 04:35:14;;;;;;;8.30;1.67;;;;;;;;;;5020576;28;20409;-60
2022/05/12 04:37:59;;;;;;;15.02;1.80;;;;;;;;;;5022906;28;20087;-60
2022/05/12 04:40:28;;;;;;;17.80;1.60;;;;;;;;;;5014134;28;20200;-60
2022/05/12 04:42:56;;;;;;;16.50;1.98;;;;;;;;;;5016983;28;20084;-60
2022/05/12 04:45:23;;;;;;;12.52;1.73;;;;;;;;;;5019799;28;20025;-59
2022/05/12 04:47:50;;;;;;;12.63;1.67;;;;;;;;;;5022408;28;20060;-59
2022/05/12 04:50:25;;;;;;;5.20;0.70;;;;;;;;;;5021242;28;20033;-59
2022/05/12 04:52:51;;;;;;;14.50;1.40;;;;;;;;;;5022643;28;20184;-60
2022/05/12 04:55:17;;;;;;;8.88;1.25;;;;;;;;;;5020013;28;20503;-59
2022/05/12 04:57:45;;;;;;;11.80;1.65;;;;;;;;;;5023603;28;20420;-59
2022/05/12 05:00:15;;;;;;;9.13;1.50;;;;;;;;;;5020443;28;20037;-59
2022/05/12 05:02:41;;;;;;;6.85;1.42;;;;;;;;;;5019500;28;20025;-59
2022/05/12 05:05:09;;;;;;;10.20;1.40;;;;;;;;;;5023275;28;20516;-59
2022/05/12 05:07:34;;;;;;;12.50;1.52;;;;;;;;;;5022542;28;20105;-59
2022/05/12 05:10:00;;;;;;;17.75;2.00;;;;;;;;;;5021112;28;20140;-59
2022/05/12 05:12:25;;;;;;;12.82;1.85;;;;;;;;;;5018671;28;20481;-59
2022/05/12 05:14:51;;;;;;;13.77;1.70;;;;;;;;;;5025307;28;20037;-59
2022/05/12 05:17:17;;;;;;;10.05;1.30;;;;;;;;;;5022795;28;20029;-59
2022/05/12 05:19:43;;;;;;;13.35;1.23;;;;;;;;;;5018236;28;20030;-60
2022/05/12 05:22:08;;;;;;;10.30;1.55;;;;;;;;;;5017656;28;20035;-59
2022/05/12 05:24:34;;;;;;;17.17;2.33;;;;;;;;;;5019705;28;20046;-60
2022/05/12 05:27:00;;;;;;;17.13;1.55;;;;;;;;;;5016599;28;20033;-59
2022/05/12 05:29:26;;;;;;;10.05;1.25;;;;;;;;;;5021553;28;20048;-59
2022/05/12 05:31:52;;;;;;;11.52;1.52;;;;;;;;;;5019372;28;20026;-59
2022/05/12 05:34:17;;;;;;;15.07;1.77;;;;;;;;;;5023466;28;20521;-60
2022/05/12 05:36:45;;;;;;;18.38;2.03;;;;;;;;;;5024287;28;20033;-60
2022/05/12 05:39:26;;;;;;;15.80;1.92;;;;;;;;;;5021174;28;20124;-59
2022/05/12 05:41:56;;;;;;;9.82;1.55;;;;;;;;;;5020840;28;20519;-58
2022/05/12 05:44:22;;;;;;;14.25;1.83;;;;;;;;;;5016510;28;20416;-58
2022/05/12 05:46:47;;;;;;;11.15;1.25;;;;;;;;;;5024170;28;20061;-58
2022/05/12 05:49:14;;;;;;;14.68;1.70;;;;;;;;;;5024476;28;20076;-58
2022/05/12 05:54:24;;;;;;;5.25;0.98;;;;;;;;;;5022174;28;20047;-58
2022/05/12 05:56:50;;;;;;;23.67;2.22;;;;;;;;;;5018270;28;20108;-58
2022/05/12 05:59:16;;;;;;;16.67;1.63;;;;;;;;;;5014572;28;20037;-58
2022/05/12 06:01:41;;;;;;;9.63;1.05;;;;;;;;;;5020333;28;20029;-59
2022/05/12 06:04:07;;;;;;;8.63;1.10;;;;;;;;;;5022390;28;20029;-58
2022/05/12 06:06:32;;;;;;;18.00;1.73;;;;;;;;;;5022261;28;20475;-58
2022/05/12 06:08:58;;;;;;;10.35;1.63;;;;;;;;;;5024309;28;20063;-58
2022/05/12 06:11:23;;;;;;;10.32;1.35;;;;;;;;;;5019293;28;20125;-60
2022/05/12 06:13:49;;;;;;;9.98;1.38;;;;;;;;;;5025174;28;20028;-59
2022/05/12 06:16:15;;;;;;;9.88;1.15;;;;;;;;;;5017148;28;20125;-60
2022/05/12 06:18:41;;;;;;;16.70;1.67;;;;;;;;;;5015332;28;20500;-59
2022/05/12 06:21:12;;;;;;;16.55;2.28;;;;;;;;;;5020497;28;20047;-59
2022/05/12 06:23:38;;;;;;;10.82;1.95;;;;;;;;;;5017189;28;20524;-60
2022/05/12 06:26:06;;;;;;;6.60;1.30;;;;;;;;;;5027974;28;20037;-60
2022/05/12 06:28:32;;;;;;;18.58;1.90;;;;;;;;;;5024985;28;20063;-59
2022/05/12 06:30:57;;;;;;;13.75;1.42;;;;;;;;;;5017681;28;20452;-59
2022/05/12 06:33:23;;;;;;;8.68;1.65;;;;;;;;;;5022779;28;20116;-59
2022/05/12 06:35:49;;;;;;;16.23;1.98;;;;;;;;;;5020468;28;20033;-59
2022/05/12 06:38:15;;;;;;;11.70;1.35;;;;;;;;;;5023839;28;20033;-59
2022/05/12 06:40:41;;;;;;;10.90;1.50;;;;;;;;;;5022733;28;20029;-59
2022/05/12 06:43:08;;;;;;;9.93;1.45;;;;;;;;;;5027621;28;20433;-59
2022/05/12 06:45:34;;;;;;;17.17;1.95;;;;;;;;;;5025688;28;20060;-59
2022/05/12 06:48:01;;;;;;;9.90;1.65;;;;;;;;;;5026970;28;20049;-60
2022/05/12 06:50:29;;;;;;;15.80;1.65;;;;;;;;;;5019224;28;20029;-59
2022/05/12 06:52:55;;;;;;;9.50;1.65;;;;;;;;;;5024976;28;20123;-57
2022/05/12 06:55:24;;;;;;;9.73;1.13;;;;;;;;;;5025171;28;20026;-59
2022/05/12 06:57:50;;;;;;;8.80;1.00;;;;;;;;;;5030477;28;20032;-57
2022/05/12 07:00:16;;;;;;;9.55;1.20;;;;;;;;;;5024310;28;20123;-59
2022/05/12 07:02:46;;;;;;;6.28;1.27;;;;;;;;;;5029258;28;20175;-59
2022/05/12 07:05:13;;;;;;;15.38;1.58;;;;;;;;;;5023990;28;20321;-60
2022/05/12 07:07:40;;;;;;;11.02;2.25;;;;;;;;;;5032936;28;20416;-58
2022/05/12 07:10:06;;;;;;;7.88;1.45;;;;;;;;;;5025202;28;20816;-59
2022/05/12 07:12:31;;;;;;;7.80;1.65;;;;;;;;;;5024261;28;20037;-59
2022/05/12 07:14:58;;;;;;;12.93;1.20;;;;;;;;;;5022595;28;20123;-59
2022/05/12 07:17:24;;;;;;;14.15;1.50;;;;;;;;;;5022419;28;20419;-59
2022/05/12 07:19:50;;;;;;;10.73;1.70;;;;;;;;;;5022342;28;20120;-60
2022/05/12 07:27:44;;;;;;;11.10;1.42;;;;;;;;;;5027679;28;20079;-60
2022/05/12 07:30:11;;;;;;;10.43;1.70;;;;;;;;;;5023270;28;20057;-60
2022/05/12 07:32:39;;;;;;;15.88;1.95;;;;;;;;;;5028073;28;20052;-60
2022/05/12 07:35:06;;;;;;;14.65;1.60;;;;;;;;;;5023881;28;20091;-59
2022/05/12 07:37:32;;;;;;;5.85;1.02;;;;;;;;;;5022274;28;20424;-59
2022/05/12 07:39:58;;;;;;;6.75;1.15;;;;;;;;;;5028039;28;20041;-60
2022/05/12 07:42:23;;;;;;;9.43;1.67;;;;;;;;;;5023668;28;20521;-60
2022/05/12 07:44:49;;;;;;;16.58;1.63;;;;;;;;;;5024552;28;20038;-59
2022/05/12 07:47:16;;;;;;;15.77;1.27;;;;;;;;;;5021652;28;20057;-59
2022/05/12 07:49:42;;;;;;;6.40;1.20;;;;;;;;;;5024710;28;20043;-59
2022/05/12 07:52:10;;;;;;;13.27;1.20;;;;;;;;;;5027067;28;20059;-60
2022/05/12 07:54:37;;;;;;;14.55;1.70;;;;;;;;;;5024397;28;20041;-59
2022/05/12 07:57:03;;;;;;;15.32;1.90;;;;;;;;;;5027155;28;20093;-59
2022/05/12 07:59:29;;;;;;;8.88;1.73;;;;;;;;;;5018655;28;20034;-60
2022/05/12 08:01:58;;;;;;;12.63;1.48;;;;;;;;;;5022106;28;20116;-60
2022/05/12 08:04:27;;;;;;;8.38;1.30;;;;;;;;;;5024843;28;20034;-59
2022/05/12 08:06:53;;;;;;;9.55;0.88;;;;;;;;;;5028011;28;20067;-59
2022/05/12 08:09:18;;;;;;;11.30;1.38;;;;;;;;;;5026090;28;20032;-60
2022/05/12 08:11:44;;;;;;;12.10;1.25;;;;;;;;;;5025131;28;20457;-60
2022/05/12 08:14:10;;;;;;;15.55;1.42;;;;;;;;;;5023218;28;20072;-60
2022/05/12 08:16:37;;;;;;;13.80;1.48;;;;;;;;;;5021623;28;20061;-60
2022/05/12 08:19:03;;;;;;;9.45;1.15;;;;;;;;;;5027785;28;20029;-60
2022/05/12 08:21:28;;;;;;;5.97;1.35;;;;;;;;;;5021982;28;20550;-60
2022/05/12 08:23:54;;;;;;;14.02;1.80;;;;;;;;;;5022001;28;20436;-59
2022/05/12 08:26:21;;;;;;;7.57;1.33;;;;;;;;;;5021854;28;20041;-59
2022/05/12 08:28:49;;;;;;;13.77;1.48;;;;;;;;;;5028080;28;20029;-60
2022/05/12 08:31:14;;;;;;;12.05;1.20;;;;;;;;;;5028509;28;20099;-60
2022/05/12 08:33:40;;;;;;;8.57;1.17;;;;;;;;;;5022883;28;20042;-60
2022/05/12 08:36:07;;;;;;;7.35;1.13;;;;;;;;;;5018761;28;20029;-59
2022/05/12 08:38:34;;;;;;;11.18;1.63;;;;;;;;;;5023081;28;20034;-60
2022/05/12 08:41:09;;;;;;;11.65;1.23;;;;;;;;;;5026636;28;20371;-60
2022/05/12 08:43:44;;;;;;;12.43;1.65;;;;;;;;;;5026934;28;20041;-59
2022/05/12 08:46:19;;;;;;;11.38;1.50;;;;;;;;;;5022510;28;20036;-60
2022/05/12 08:48:46;;;;;;;12.18;1.30;;;;;;;;;;5020009;28;20118;-59
2022/05/12 08:51:18;;;;;;;9.77;1.27;;;;;;;;;;5023865;28;20472;-60
2022/05/12 08:53:51;;;;;;;9.82;1.63;;;;;;;;;;5026429;28;20460;-59
2022/05/12 08:56:19;;;;;;;8.90;1.25;;;;;;;;;;5018084;28;20503;-59
2022/05/12 08:58:48;;;;;;;9.98;1.23;;;;;;;;;;5023545;28;20022;-59
2022/05/12 09:01:19;;;;;;;12.73;1.63;;;;;;;;;;5025297;28;20017;-60
2022/05/12 09:04:09;;;;;;;8.43;1.05;;;;;;;;;;5018885;28;20108;-60
2022/05/12 09:06:41;;;;;;;5.18;1.30;;;;;;;;;;5023384;28;20037;-60
2022/05/12 09:09:49;;;;;;;10.90;1.55;;;;;;;;;;5014403;28;20041;-59
2022/05/12 09:12:30;;;;;;;11.18;1.27;;;;;;;;;;5020390;28;20041;-59
2022/05/12 09:15:03;;;;;;;10.90;1.65;;;;;;;;;;5021032;28;20033;-60
2022/05/12 09:17:42;;;;;;;5.60;1.23;;;;;;;;;;5020132;28;20531;-59
2022/05/12 09:20:10;;;;;;;7.25;1.10;;;;;;;;;;5015944;28;20438;-60
2022/05/12 09:22:37;;;;;;;8.20;1.27;;;;;;;;;;5020441;28;20091;-58
2022/05/12 09:25:03;;;;;;;9.90;1.45;;;;;;;;;;5019052;28;20060;-60
2022/05/12 09:27:35;;;;;;;8.10;1.20;;;;;;;;;;5020415;28;20034;-59
2022/05/12 09:30:04;;;;;;;7.43;1.33;;;;;;;;;;5019301;28;20092;-60
2022/05/12 09:32:33;;;;;;;6.28;1.10;;;;;;;;;;5022699;28;20138;-59
2022/05/12 09:35:07;;;;;;;7.22;0.98;;;;;;;;;;5012720;28;20037;-60
2022/05/12 09:37:33;;;;;;;10.63;1.40;;;;;;;;;;5025457;28;20399;-59
2022/05/12 09:40:18;;;;;;;6.63;1.20;;;;;;;;;;5025158;28;20033;-60
2022/05/12 09:42:47;;;;;;;8.15;1.50;;;;;;;;;;5024536;28;20041;-59
2022/05/12 09:45:26;;;;;;;5.68;0.80;;;;;;;;;;5024613;28;20520;-59
2022/05/12 09:48:23;;;;;;;8.52;1.13;;;;;;;;;;5025175;28;20084;-60
2022/05/12 09:50:50;;;;;;;11.30;1.10;;;;;;;;;;5023216;28;20060;-61
2022/05/12 09:53:32;;;;;;;6.82;1.05;;;;;;;;;;5023018;28;20041;-60
2022/05/12 09:56:08;;;;;;;9.55;1.70;;;;;;;;;;5023895;28;20520;-60
2022/05/12 09:58:49;;;;;;;10.07;1.92;;;;;;;;;;5022308;28;20037;-60
2022/05/12 10:01:18;;;;;;;7.23;1.83;;;;;;;;;;5023818;28;20029;-60
2022/05/12 10:09:27;;;;;;;6.78;0.80;;;;;;;;;;5018902;28;20052;-59
2022/05/12 10:12:07;;;;;;;3.08;0.70;;;;;;;;;;5018952;28;20208;-60
2022/05/12 10:14:51;;;;;;;7.72;1.48;;;;;;;;;;5024335;28;20024;-59
2022/05/12 10:17:41;;;;;;;6.25;1.00;;;;;;;;;;5023269;28;20044;-59
2022/05/12 10:20:14;;;;;;;7.30;1.10;;;;;;;;;;5016214;28;20114;-59
2022/05/12 10:22:47;;;;;;;5.25;1.02;;;;;;;;;;5022103;28;20527;-59
2022/05/12 10:25:47;;;;;;;5.35;0.82;;;;;;;;;;5023990;28;20036;-60
2022/05/12 10:28:48;;;;;;;7.03;1.55;;;;;;;;;;5014043;28;20025;-59
2022/05/12 10:31:22;;;;;;;7.60;1.15;;;;;;;;;;5022423;28;20065;-59
2022/05/12 10:34:12;;;;;;;8.75;1.77;;;;;;;;;;5023121;28;20033;-59
2022/05/12 10:36:56;;;;;;;9.32;1.27;;;;;;;;;;5022782;28;20431;-59
2022/05/12 10:39:56;;;;;;;4.30;0.98;;;;;;;;;;5017078;28;20106;-60
2022/05/12 10:42:40;;;;;;;8.82;1.30;;;;;;;;;;5016524;28;20021;-59
2022/05/12 10:45:28;;;;;;;5.72;0.90;;;;;;;;;;5023259;28;20029;-60
2022/05/12 10:48:22;;;;;;;5.80;0.93;;;;;;;;;;5022443;28;20041;-60
2022/05/12 10:51:21;;;;;;;6.82;1.42;;;;;;;;;;5020013;28;20388;-59
2022/05/12 10:54:01;;;;;;;6.30;0.90;;;;;;;;;;5020664;28;20049;-59
2022/05/12 10:56:30;;;;;;;5.30;0.90;;;;;;;;;;5025452;28;20021;-59
2022/05/12 10:59:07;;;;;;;6.28;1.10;;;;;;;;;;5026809;28;20062;-59
2022/05/12 11:02:05;;;;;;;2.78;0.82;;;;;;;;;;5023247;28;20033;-59
2022/05/12 11:04:41;;;;;;;5.32;0.88;;;;;;;;;;4998117;28;20042;-60
2022/05/12 11:07:32;;;;;;;7.82;0.93;;;;;;;;;;5022071;28;20036;-59
2022/05/12 11:10:17;;;;;;;6.60;1.35;;;;;;;;;;5021744;28;20052;-59
2022/05/12 11:12:46;;;;;;;10.45;1.73;;;;;;;;;;5025178;28;20036;-60
2022/05/12 11:15:18;;;;;;;8.38;1.10;;;;;;;;;;5027108;28;20101;-58
2022/05/12 11:17:52;;;;;;;6.28;0.82;;;;;;;;;;5019589;28;20029;-59
2022/05/12 11:20:42;;;;;;;8.85;1.20;;;;;;;;;;5020793;28;20424;-59
2022/05/12 11:23:22;;;;;;;7.40;0.80;;;;;;;;;;5021552;28;20033;-60
2022/05/12 11:26:20;;;;;;;4.72;1.17;;;;;;;;;;5022488;28;20116;-59
2022/05/12 11:29:48;;;;;;;6.13;0.70;;;;;;;;;;5018547;28;20087;-60
2022/05/12 11:32:28;;;;;;;6.30;0.70;;;;;;;;;;5016646;28;20471;-60
2022/05/12 11:35:05;;;;;;;6.28;1.20;;;;;;;;;;5015460;28;20485;-59
2022/05/12 11:37:36;;;;;;;4.05;1.10;;;;;;;;;;5019223;28;20025;-59
2022/05/12 11:40:12;;;;;;;7.45;1.20;;;;;;;;;;5020155;28;20021;-60
2022/05/12 11:45:47;;;;;;;6.72;1.00;;;;;;;;;;5028505;28;20056;-59
2022/05/12 11:48:47;;;;;;;5.15;0.98;;;;;;;;;;5026014;28;20060;-59
2022/05/12 11:51:39;;;;;;;5.75;1.20;;;;;;;;;;5027493;28;20109;-59
2022/05/12 11:54:09;;;;;;;;;;;;;;;;;;5023946;28;20044;-59
2022/05/12 11:56:49;;;;;;;8.73;1.10;;;;;;;;;;5025146;28;20381;-59
2022/05/12 11:59:44;;;;;;;4.75;0.77;;;;;;;;;;5023807;28;20111;-59
2022/05/12 12:02:29;;;;;;;2.72;0.70;;;;;;;;;;5029416;28;20112;-59
2022/05/12 12:04:57;;;;;;;6.63;1.13;;;;;;;;;;5023462;28;20648;-59
2022/05/12 12:07:32;;;;;;;8.43;1.38;;;;;;;;;;5023674;28;20033;-59
2022/05/12 12:10:25;;;;;;;4.07;0.82;;;;;;;;;;5022992;28;20055;-59
2022/05/12 12:12:56;;;;;;;5.47;1.92;;;;;;;;;;5027681;28;20400;-60
2022/05/12 12:15:30;;;;;;;6.35;0.90;;;;;;;;;;5025724;28;20128;-60
2022/05/12 12:17:57;;;;;;;5.03;0.70;;;;;;;;;;5024782;28;20043;-60
2022/05/12 12:20:28;;;;;;;2.83;0.60;;;;;;;;;;5015463;28;20541;-59
2022/05/12 12:22:56;;;;;;;14.40;1.30;;;;;;;;;;5027172;28;20029;-59
2022/05/12 12:25:36;;;;;;;5.38;0.80;;;;;;;;;;5026099;28;20034;-59
2022/05/12 12:28:27;;;;;;;7.95;1.27;;;;;;;;;;5021801;28;20455;-59
2022/05/12 12:30:53;;;;;;;3.35;0.55;;;;;;;;;;5023388;28;20025;-59
2022/05/12 12:33:24;;;;;;;3.08;0.77;;;;;;;;;;5027168;28;20577;-60
2022/05/12 12:36:15;;;;;;;2.30;0.90;;;;;;;;;;5020808;28;20413;-59
2022/05/12 12:38:46;;;;;;;4.63;0.70;;;;;;;;;;5025387;28;20041;-60
2022/05/12 12:41:29;;;;;;;4.25;0.85;;;;;;;;;;5026589;28;20014;-59
2022/05/12 12:43:59;;;;;;;1.98;0.60;;;;;;;;;;5027536;28;20032;-59
2022/05/12 12:46:37;;;;;;;2.03;0.70;;;;;;;;;;5025169;28;20025;-59
2022/05/12 12:49:24;;;;;;;6.05;0.80;;;;;;;;;;5017424;28;20084;-59
2022/05/12 12:51:57;;;;;;;2.72;0.90;;;;;;;;;;5022436;28;20566;-59
2022/05/12 12:57:23;;;;;;;3.97;0.70;;;;;;;;;;5023387;28;20409;-60
2022/05/12 12:59:52;;;;;;;5.80;0.60;;;;;;;;;;5020256;28;20026;-59
2022/05/12 13:02:40;;;;;;;2.30;0.50;;;;;;;;;;5022310;28;20045;-59
2022/05/12 13:05:18;;;;;;;5.95;0.68;;;;;;;;;;5017661;28;20395;-60
2022/05/12 13:07:57;;;;;;;2.53;0.73;;;;;;;;;;5023240;28;20283;-60
2022/05/12 13:10:24;;;;;;;7.47;1.73;;;;;;;;;;5019473;28;20025;-60
2022/05/12 13:13:05;;;;;;;11.65;2.08;;;;;;;;;;5017428;28;20452;-59
2022/05/12 13:15:39;;;;;;;1.92;0.52;;;;;;;;;;5035724;28;20033;-60
2022/05/12 13:18:08;;;;;;;4.32;1.02;;;;;;;;;;5020535;28;20450;-60
2022/05/12 13:20:43;;;;;;;10.57;1.83;;;;;;;;;;5012760;28;20112;-60
2022/05/12 13:23:19;;;;;;;5.63;0.55;;;;;;;;;;5017007;28;20037;-59
2022/05/12 13:25:44;;;;;;;4.05;0.40;;;;;;;;;;5019707;28;20060;-60
2022/05/12 13:28:24;;;;;;;5.07;0.88;;;;;;;;;;5023966;28;20080;-60
2022/05/12 13:30:52;;;;;;;4.70;0.60;;;;;;;;;;5019434;28;20053;-60
2022/05/12 13:33:18;;;;;;;5.97;1.05;;;;;;;;;;5023688;28;20034;-60
2022/05/12 13:35:55;;;;;;;0.68;0.35;;;;;;;;;;5025291;28;20033;-59
2022/05/12 13:38:21;;;;;;;2.90;0.57;;;;;;;;;;5022436;28;20072;-60
2022/05/12 13:41:01;;;;;;;3.60;0.47;;;;;;;;;;5038718;28;20053;-60
2022/05/12 13:43:31;;;;;;;0.98;0.30;;;;;;;;;;5024083;28;20025;-59
2022/05/12 13:46:14;;;;;;;2.55;0.57;;;;;;;;;;5024913;28;20021;-59
2022/05/12 13:48:55;;;;;;;1.90;0.32;;;;;;;;;;5018585;28;20045;-59
2022/05/12 13:51:48;;;;;;;0.77;0.30;;;;;;;;;;5022085;28;20061;-60
2022/05/12 13:54:30;;;;;;;1.83;0.40;;;;;;;;;;5025992;28;20488;-59
2022/05/12 13:57:37;;;;;;;1.42;0.28;;;;;;;;;;5025659;28;20021;-60
2022/05/12 14:00:11;;;;;;;1.05;0.40;;;;;;;;;;5022212;28;20033;-60
2022/05/12 14:02:42;;;;;;;1.10;0.40;;;;;;;;;;5019248;28;20396;-59
2022/05/12 14:05:08;;;;;;;1.63;0.40;;;;;;;;;;5025374;28;20423;-60
2022/05/12 14:07:34;;;;;;;5.10;0.60;;;;;;;;;;5020575;28;20033;-59
2022/05/12 14:10:13;;;;;;;2.25;0.32;;;;;;;;;;5023609;28;20049;-59
2022/05/12 14:19:13;;;;;;;5.78;0.70;;;;;;;;;;5024957;28;20046;-60
2022/05/12 14:20:52;;;;;;;1.48;0.30;;;;;;;;;;5022192;28;20052;-59
2022/05/12 14:23:18;;;;;;;0.52;0.30;;;;;;;;;;5028172;28;20017;-59
2022/05/12 14:25:43;;;;;;;2.03;0.40;;;;;;;;;;5029593;28;20061;-59
2022/05/12 14:28:09;;;;;;;0.75;0.30;;;;;;;;;;5025951;28;20038;-59
2022/05/12 14:30:35;;;;;;;3.38;0.45;;;;;;;;;;5019364;28;20176;-59
2022/05/12 14:33:01;;;;;;;1.20;0.30;;;;;;;;;;5032073;28;20484;-59
2022/05/12 14:35:28;;;;;;;1.13;0.20;;;;;;;;;;5017775;28;20037;-59
2022/05/12 14:37:54;;;;;;;0.68;0.30;;;;;;;;;;5019819;28;20056;-59
2022/05/12 14:40:23;;;;;;;3.15;0.30;;;;;;;;;;5015308;28;20493;-60
2022/05/12 14:42:49;;;;;;;2.38;0.30;;;;;;;;;;5016550;28;20033;-59
2022/05/12 14:45:17;;;;;;;1.30;0.30;;;;;;;;;;5016504;28;20048;-60
2022/05/12 14:47:45;;;;;;;1.45;0.30;;;;;;;;;;5021761;28;20073;-59
2022/05/12 14:50:12;;;;;;;0.75;0.30;;;;;;;;;;5010759;28;20113;-59
2022/05/12 14:52:39;;;;;;;0.60;0.40;;;;;;;;;;5018113;28;20039;-59
2022/05/12 14:55:05;;;;;;;2.38;0.50;;;;;;;;;;5024117;28;20026;-59
2022/05/12 14:57:31;;;;;;;0.75;0.35;;;;;;;;;;5022508;28;20055;-59
2022/05/12 14:59:57;;;;;;;1.60;0.43;;;;;;;;;;5022726;28;20029;-59
2022/05/12 15:02:41;;;;;;;2.25;0.50;;;;;;;;;;5015009;28;20032;-59
2022/05/12 15:05:10;;;;;;;2.30;0.32;;;;;;;;;;5018314;28;20025;-59
2022/05/12 15:07:37;;;;;;;0.90;0.35;;;;;;;;;;5028404;28;20112;-59
2022/05/12 15:10:07;;;;;;;1.95;0.43;;;;;;;;;;5028048;28;20108;-59
2022/05/12 15:12:33;;;;;;;3.40;0.30;;;;;;;;;;5030057;28;20069;-59
2022/05/12 15:14:58;;;;;;;1.42;0.50;;;;;;;;;;5027684;28;20057;-60
2022/05/12 15:17:26;;;;;;;0.35;0.30;;;;;;;;;;5029776;28;20025;-59
2022/05/12 15:19:52;;;;;;;5.57;0.40;;;;;;;;;;5025848;28;20033;-59
2022/05/12 15:22:17;;;;;;;2.22;0.30;;;;;;;;;;5021890;28;20017;-59
2022/05/12 15:24:44;;;;;;;1.80;0.40;;;;;;;;;;5028830;28;20069;-59
2022/05/12 15:27:10;;;;;;;2.08;0.45;;;;;;;;;;5025766;28;20618;-59